Airfield :
LOGIN :

Register | Disclaimer

   EN    FR    IT 

 










Legend :    VFR   Marginal VFR   IFR   Intensive IFR   Very Intensive IFR
Visi :
Ceiling :
>= 8 km
>= 3000ft
5 to 8 km
1000 to 3000 ft
1500m to 5 km
500 to 1000 ft
800 to 1500m
200 to 500 ft
< 800m
< 200 ft
Symbols :   Thunderstorms  Fog  Heavy snow  Heavy precipitations  Wind > 20 kt
SIGMETs :     Misc.  Thunderstorms  Icing  Turbulence  Mountain Waves  Volcanic Ashes






- Airport Elevation : 17 ft
- IATA code : GRS


LIRS - Grosseto

CURRENT METAR :
  • 190455Z VRB02KT CAVOK 21/19 Q1015

EXPIRED METARs :
  • 190355Z 04002KT CAVOK 20/19 Q1015 RMK SKC VIS MIN 9999 WIND THR03 VRB02KT WIND THR21 06003KT BLU
  • 190255Z 02003KT CAVOK 22/19 Q1015 RMK SKC VIS MIN 9999 WIND THR03 03002KT WIND THR21 05004KT BLU
  • 190155Z 02004KT CAVOK 22/19 Q1015 RMK SKC VIS MIN 9999 WIND THR03 36002KT WIND THR21 04003KT BLU
  • 190055Z 35004KT CAVOK 23/20 Q1015

TAF TAF LIRS
Valid from the 19 at 06:00 until the 19 at 15:00 UTC


190500Z 1906/1915 36005KT CAVOK
TEMPO 1911/1915 27012KT



MET'MAP, your aeronautical weather chart ! - Copyright ORBIFLY December 2007 - Disclaimer

ORBIFLY MET'MAP TEAM :

Programming & Development : Alexandra Zaïnal
Original concept : Baudouin d'Aumeries
Technical & hardware support : Manuel Goepfert
Assistance : Marc-Olivier Méhu




SOURCES & CREDITS :

   NOAA